createdAt,value
2019-01-12T00:01:27.368Z,95119.94
2019-01-12T00:03:55.598Z,95127.16
2019-01-12T00:06:23.141Z,95118.34
2019-01-12T00:08:50.656Z,95119.91
2019-01-12T00:11:18.182Z,95105.51
2019-01-12T00:13:45.615Z,95106.28
2019-01-12T00:16:13.340Z,95126.91
2019-01-12T00:18:40.840Z,95144.14
2019-01-12T00:21:08.351Z,95149.05
2019-01-12T00:23:35.895Z,95130.52
2019-01-12T00:26:03.540Z,95133.25
2019-01-12T00:28:31.075Z,95130.41
2019-01-12T00:30:58.569Z,95124.86
2019-01-12T00:33:26.068Z,95131.28
2019-01-12T00:35:53.576Z,95127.52
2019-01-12T00:38:21.095Z,95124.45
2019-01-12T00:40:48.642Z,95123.28
2019-01-12T00:43:16.277Z,95114.86
2019-01-12T00:45:43.798Z,95111.06
2019-01-12T00:48:11.453Z,95107.23
2019-01-12T00:50:39.010Z,95101.08
2019-01-12T00:53:06.694Z,95104.50
2019-01-12T00:55:34.277Z,95100.70
2019-01-12T00:58:01.722Z,95092.59
2019-01-12T01:00:29.644Z,95112.29
2019-01-12T01:02:57.379Z,95095.18
2019-01-12T01:05:25.087Z,95106.80
2019-01-12T01:07:52.620Z,95108.30
2019-01-12T01:10:21.688Z,95087.63
2019-01-12T01:12:49.913Z,95082.11
2019-01-12T01:15:18.654Z,95093.64
2019-01-12T01:17:46.125Z,95103.46
2019-01-12T01:20:14.728Z,95095.50
2019-01-12T01:22:42.383Z,95092.37
2019-01-12T01:25:10.074Z,95097.19
2019-01-12T01:27:37.656Z,95098.00
2019-01-12T01:30:08.509Z,95098.89
2019-01-12T01:32:36.004Z,95095.80
2019-01-12T01:35:04.269Z,95098.34
2019-01-12T01:37:31.834Z,95098.34
2019-01-12T01:39:59.447Z,95102.55
2019-01-12T01:42:26.861Z,95089.97
2019-01-12T01:44:54.431Z,95092.22
2019-01-12T01:47:22.011Z,95091.44
2019-01-12T01:49:49.535Z,95089.73
2019-01-12T01:52:17.108Z,95089.88
2019-01-12T01:54:44.567Z,95081.41
2019-01-12T01:57:12.078Z,95068.17
2019-01-12T01:59:39.665Z,95068.17
2019-01-12T02:02:07.160Z,95075.19
2019-01-12T02:04:34.643Z,95065.52
2019-01-12T02:07:02.164Z,95060.23
2019-01-12T02:09:29.781Z,95069.20
2019-01-12T02:11:57.231Z,95068.97
2019-01-12T02:14:24.803Z,95068.39
2019-01-12T02:16:52.389Z,95061.07
2019-01-12T02:19:19.955Z,95070.08
2019-01-12T02:21:47.455Z,95054.52
2019-01-12T02:24:15.036Z,95046.91
2019-01-12T02:26:42.637Z,95046.91
2019-01-12T02:29:10.159Z,95048.31
2019-01-12T02:31:37.605Z,95053.37
2019-01-12T02:34:05.176Z,95047.66
2019-01-12T02:36:32.627Z,95038.92
2019-01-12T02:39:00.058Z,95044.51
2019-01-12T02:41:27.710Z,95044.51
2019-01-12T02:43:55.285Z,95046.30
2019-01-12T02:46:22.789Z,95047.45
2019-01-12T02:48:50.345Z,95049.77
2019-01-12T02:51:18.097Z,95044.51
2019-01-12T02:53:46.030Z,95037.83
2019-01-12T02:56:13.644Z,95030.95
2019-01-12T02:58:41.168Z,95028.46
2019-01-12T03:01:08.706Z,95022.66
2019-01-12T03:03:36.285Z,95023.11
2019-01-12T03:06:04.000Z,95027.64
2019-01-12T03:08:31.548Z,95021.08
2019-01-12T03:10:58.992Z,95018.43
2019-01-12T03:13:26.449Z,95006.70
2019-01-12T03:15:54.014Z,95002.05
2019-01-12T03:18:21.597Z,94996.38
2019-01-12T03:20:49.021Z,95006.22
2019-01-12T03:23:16.562Z,94985.20
2019-01-12T03:25:44.284Z,94985.20
2019-01-12T03:28:11.959Z,94989.49
2019-01-12T03:30:39.645Z,94994.11
2019-01-12T03:33:07.219Z,94998.16
2019-01-12T03:35:34.693Z,94998.78
2019-01-12T03:38:02.299Z,94987.66
2019-01-12T03:40:29.845Z,94964.84
2019-01-12T03:42:57.336Z,94983.81
2019-01-12T03:45:24.860Z,94974.18
2019-01-12T03:47:52.330Z,94974.79
2019-01-12T03:50:20.076Z,94991.96
2019-01-12T03:52:47.582Z,94985.78
2019-01-12T03:55:15.784Z,94975.19
2019-01-12T03:57:43.269Z,94974.25
2019-01-12T04:00:22.306Z,94969.86
2019-01-12T04:02:49.832Z,94976.52
2019-01-12T04:05:17.440Z,94980.89
2019-01-12T04:07:44.995Z,94977.50
2019-01-12T04:10:12.806Z,94977.67
2019-01-12T04:12:40.249Z,94977.67
2019-01-12T04:15:08.950Z,94974.62
2019-01-12T04:17:36.489Z,94969.24
2019-01-12T04:20:06.010Z,94980.45
2019-01-12T04:22:33.602Z,94981.16
2019-01-12T04:25:01.089Z,94976.44
2019-01-12T04:27:28.569Z,94979.70
2019-01-12T04:29:56.014Z,94979.70
2019-01-12T04:32:23.608Z,94966.14
2019-01-12T04:34:51.197Z,94973.20
2019-01-12T04:37:18.738Z,94964.28
2019-01-12T04:39:46.396Z,94964.28
2019-01-12T04:42:13.909Z,94978.75
2019-01-12T04:44:41.484Z,94974.71
2019-01-12T04:47:09.046Z,94974.71
2019-01-12T04:49:36.565Z,94966.64
2019-01-12T04:52:04.093Z,94966.64
2019-01-12T04:54:31.649Z,94966.42
2019-01-12T04:56:59.245Z,94962.80
2019-01-12T04:59:26.863Z,94972.24
2019-01-12T05:01:54.341Z,94972.24
2019-01-12T05:04:21.812Z,94972.08
2019-01-12T05:06:49.347Z,94970.94
2019-01-12T05:09:16.993Z,94964.55
2019-01-12T05:11:44.482Z,94976.86
2019-01-12T05:14:12.087Z,94977.81
2019-01-12T05:16:39.652Z,94977.81
2019-01-12T05:19:07.152Z,94981.83
2019-01-12T05:21:35.259Z,94984.29
2019-01-12T05:24:03.027Z,94988.75
2019-01-12T05:26:30.580Z,94987.50
2019-01-12T05:28:58.157Z,94982.75
2019-01-12T05:31:25.651Z,94984.98
2019-01-12T05:33:53.150Z,94976.81
2019-01-12T05:36:20.805Z,94989.89
2019-01-12T05:38:48.309Z,94980.63
2019-01-12T05:41:15.836Z,94980.63
2019-01-12T05:43:43.421Z,94985.78
2019-01-12T05:46:11.388Z,94985.78
2019-01-12T05:48:39.390Z,94989.92
2019-01-12T05:51:06.990Z,94996.42
2019-01-12T05:53:34.637Z,95007.36
2019-01-12T05:56:02.128Z,95000.16
2019-01-12T05:58:29.798Z,94998.31
2019-01-12T06:00:57.440Z,94987.66
2019-01-12T06:03:24.856Z,94984.63
2019-01-12T06:05:52.517Z,94994.36
2019-01-12T06:08:20.087Z,94994.37
2019-01-12T06:10:47.549Z,94988.25
2019-01-12T06:13:15.145Z,94991.46
2019-01-12T06:15:42.709Z,94991.46
2019-01-12T06:18:10.192Z,94988.63
2019-01-12T06:20:37.701Z,94999.66
2019-01-12T06:23:05.213Z,95002.61
2019-01-12T06:25:32.776Z,94997.19
2019-01-12T06:28:00.217Z,94990.20
2019-01-12T06:30:28.131Z,94998.87
2019-01-12T06:32:56.739Z,94998.50
2019-01-12T06:35:24.237Z,94995.49
2019-01-12T06:37:51.757Z,94994.16
2019-01-12T06:40:19.497Z,94998.91
2019-01-12T06:42:47.501Z,94998.91
2019-01-12T06:45:15.782Z,94999.77
2019-01-12T06:47:43.484Z,95003.31
2019-01-12T06:50:14.331Z,95005.96
2019-01-12T06:52:41.869Z,95007.88
2019-01-12T06:55:09.715Z,95004.77
2019-01-12T06:57:37.324Z,95009.05
2019-01-12T07:00:08.038Z,95005.80
2019-01-12T07:02:35.776Z,95007.19
2019-01-12T07:05:04.817Z,95007.14
2019-01-12T07:07:32.438Z,95007.14
2019-01-12T07:09:59.900Z,95004.05
2019-01-12T07:12:27.508Z,95004.43
2019-01-12T07:14:55.067Z,95000.58
2019-01-12T07:17:22.541Z,94996.64
2019-01-12T07:19:50.063Z,95005.31
2019-01-12T07:22:17.564Z,95014.28
2019-01-12T07:24:45.096Z,95002.03
2019-01-12T07:27:12.704Z,95005.41
2019-01-12T07:29:40.266Z,95004.20
2019-01-12T07:32:07.769Z,95006.56
2019-01-12T07:34:35.339Z,95003.59
2019-01-12T07:37:02.903Z,95003.59
2019-01-12T07:39:30.329Z,94995.87
2019-01-12T07:41:58.008Z,95003.62
2019-01-12T07:44:25.638Z,95004.38
2019-01-12T07:46:53.234Z,95009.86
2019-01-12T07:49:20.763Z,95001.94
2019-01-12T07:51:49.163Z,94999.27
2019-01-12T07:54:16.792Z,95014.91
2019-01-12T07:56:44.283Z,95019.24
2019-01-12T07:59:11.932Z,95015.66
2019-01-12T08:01:39.775Z,95007.11
2019-01-12T08:04:07.452Z,95014.89
2019-01-12T08:06:34.943Z,95009.44
2019-01-12T08:09:04.415Z,95009.02
2019-01-12T08:11:32.050Z,95007.70
2019-01-12T08:13:59.645Z,95007.15
2019-01-12T08:16:27.374Z,95004.88
2019-01-12T08:18:54.964Z,95009.84
2019-01-12T08:21:22.721Z,95012.67
2019-01-12T08:23:50.295Z,95018.20
2019-01-12T08:26:17.736Z,95015.16
2019-01-12T08:28:45.280Z,95028.83
2019-01-12T08:31:12.777Z,95030.74
2019-01-12T08:33:40.320Z,95035.05
2019-01-12T08:36:07.974Z,95029.52
2019-01-12T08:38:35.484Z,95032.17
2019-01-12T08:41:03.061Z,95036.86
2019-01-12T08:43:31.103Z,95036.34
2019-01-12T08:45:59.258Z,95032.98
2019-01-12T08:48:26.868Z,95031.09
2019-01-12T08:50:54.632Z,95023.55
2019-01-12T08:53:22.260Z,95029.22
2019-01-12T08:55:49.829Z,95023.37
2019-01-12T08:58:17.283Z,95016.02
2019-01-12T09:00:44.792Z,95010.82
2019-01-12T09:03:12.409Z,95011.98
2019-01-12T09:05:39.827Z,95008.55
2019-01-12T09:08:07.833Z,95000.45
2019-01-12T09:10:35.303Z,95006.98
2019-01-12T09:13:02.912Z,94994.44
2019-01-12T09:15:30.672Z,94988.41
2019-01-12T09:17:58.147Z,94973.33
2019-01-12T09:20:25.864Z,94972.77
2019-01-12T09:22:54.339Z,94970.45
2019-01-12T09:25:23.082Z,94946.34
2019-01-12T09:27:50.877Z,94954.27
2019-01-12T09:30:20.283Z,94957.83
2019-01-12T09:32:48.173Z,94939.21
2019-01-12T09:35:15.921Z,94943.77
2019-01-12T09:37:43.740Z,94936.92
2019-01-12T09:40:14.012Z,94935.62
2019-01-12T09:42:41.711Z,94933.16
2019-01-12T09:45:10.733Z,94922.91
2019-01-12T09:47:38.754Z,94922.53
2019-01-12T09:50:08.493Z,94919.23
2019-01-12T09:52:36.682Z,94924.47
2019-01-12T09:55:04.636Z,94926.70
2019-01-12T09:57:32.151Z,94937.91
2019-01-12T09:59:59.720Z,94928.95
2019-01-12T10:02:27.345Z,94928.23
2019-01-12T10:04:55.044Z,94916.20
2019-01-12T10:07:22.735Z,94912.64
2019-01-12T10:09:50.294Z,94914.23
2019-01-12T10:12:17.877Z,94918.79
2019-01-12T10:14:45.455Z,94911.59
2019-01-12T10:17:12.929Z,94906.97
2019-01-12T10:19:40.609Z,94901.17
2019-01-12T10:22:08.341Z,94899.67
2019-01-12T10:24:35.767Z,94901.64
2019-01-12T10:27:03.813Z,94900.94
2019-01-12T10:29:31.425Z,94889.20
2019-01-12T10:31:58.922Z,94897.47
2019-01-12T10:34:27.328Z,94884.70
2019-01-12T10:36:54.998Z,94874.60
2019-01-12T10:39:22.699Z,94875.30
2019-01-12T10:41:50.453Z,94876.75
2019-01-12T10:44:18.185Z,94865.23
2019-01-12T10:46:45.877Z,94863.68
2019-01-12T10:49:13.305Z,94872.37
2019-01-12T10:51:40.826Z,94874.20
2019-01-12T10:54:08.813Z,94872.76
2019-01-12T10:56:36.521Z,94875.62
2019-01-12T10:59:04.748Z,94881.41
2019-01-12T11:01:32.553Z,94870.09
2019-01-12T11:04:00.130Z,94865.66
2019-01-12T11:06:27.707Z,94850.11
2019-01-12T11:08:55.366Z,94865.69
2019-01-12T11:11:23.386Z,94859.04
2019-01-12T11:13:51.013Z,94855.89
2019-01-12T11:16:18.749Z,94853.06
2019-01-12T11:18:46.370Z,94858.72
2019-01-12T11:21:13.874Z,94853.80
2019-01-12T11:23:41.748Z,94844.67
2019-01-12T11:26:09.865Z,94847.69
2019-01-12T11:28:37.541Z,94847.34
2019-01-12T11:31:05.397Z,94846.16
2019-01-12T11:33:33.719Z,94844.09
2019-01-12T11:36:01.435Z,94846.08
2019-01-12T11:38:29.016Z,94856.59
2019-01-12T11:40:57.008Z,94837.19
2019-01-12T11:43:24.698Z,94828.22
2019-01-12T11:45:52.435Z,94831.02
2019-01-12T11:48:19.933Z,94834.34
2019-01-12T11:50:47.441Z,94826.02
2019-01-12T11:53:15.172Z,94823.14
2019-01-12T11:55:42.825Z,94820.97
2019-01-12T11:58:10.520Z,94813.05
2019-01-12T12:00:38.091Z,94815.55
2019-01-12T12:03:06.110Z,94807.56
2019-01-12T12:05:33.600Z,94799.71
2019-01-12T12:08:01.190Z,94801.73
2019-01-12T12:10:28.888Z,94790.78
2019-01-12T12:12:56.500Z,94805.73
2019-01-12T12:15:24.151Z,94807.07
2019-01-12T12:17:51.652Z,94799.16
2019-01-12T12:20:21.691Z,94794.68
2019-01-12T12:22:49.352Z,94796.10
2019-01-12T12:25:17.692Z,94815.16
2019-01-12T12:27:45.367Z,94792.75
2019-01-12T12:30:18.959Z,94790.78
2019-01-12T12:32:46.680Z,94790.10
2019-01-12T12:35:15.078Z,94802.85
2019-01-12T12:37:42.705Z,94790.65
2019-01-12T12:40:11.656Z,94788.03
2019-01-12T12:42:39.274Z,94786.55
2019-01-12T12:45:10.880Z,94793.23
2019-01-12T12:47:38.353Z,94787.70
2019-01-12T12:50:08.266Z,94786.16
2019-01-12T12:52:35.903Z,94781.16
2019-01-12T12:55:04.735Z,94776.58
2019-01-12T12:57:33.035Z,94780.71
2019-01-12T13:00:00.770Z,94784.80
2019-01-12T13:02:28.233Z,94794.25
2019-01-12T13:04:55.692Z,94792.15
2019-01-12T13:07:23.204Z,94789.73
2019-01-12T13:09:50.686Z,94782.11
2019-01-12T13:12:18.461Z,94791.49
2019-01-12T13:14:46.207Z,94785.84
2019-01-12T13:17:13.982Z,94774.65
2019-01-12T13:19:50.342Z,94774.62
2019-01-12T13:22:17.893Z,94776.92
2019-01-12T13:24:49.315Z,94773.31
2019-01-12T13:27:16.837Z,94777.94
2019-01-12T13:29:44.497Z,94778.89
2019-01-12T13:32:12.054Z,94784.20
2019-01-12T13:34:40.704Z,94779.06
2019-01-12T13:37:08.560Z,94779.23
2019-01-12T13:39:36.074Z,94777.48
2019-01-12T13:42:03.881Z,94780.81
2019-01-12T13:44:31.424Z,94775.32
2019-01-12T13:46:59.066Z,94781.41
2019-01-12T13:49:26.724Z,94782.33
2019-01-12T13:51:55.479Z,94782.13
2019-01-12T13:54:23.213Z,94785.52
2019-01-12T13:56:51.364Z,94786.34
2019-01-12T13:59:19.682Z,94796.31
2019-01-12T14:01:47.460Z,94783.17
2019-01-12T14:04:15.767Z,94791.88
2019-01-12T14:06:43.509Z,94794.42
2019-01-12T14:09:11.162Z,94792.27
2019-01-12T14:11:43.902Z,94796.58
2019-01-12T14:14:14.241Z,94798.33
2019-01-12T14:16:41.766Z,94803.53
2019-01-12T14:19:09.327Z,94802.00
2019-01-12T14:21:36.987Z,94802.90
2019-01-12T14:24:04.552Z,94800.74
2019-01-12T14:26:32.377Z,94794.95
2019-01-12T14:28:59.984Z,94807.09
2019-01-12T14:31:27.462Z,94803.94
2019-01-12T14:33:55.089Z,94802.77
2019-01-12T14:36:22.716Z,94798.20
2019-01-12T14:38:50.301Z,94803.36
2019-01-12T14:41:18.111Z,94795.39
2019-01-12T14:43:45.735Z,94793.88
2019-01-12T14:46:13.359Z,94804.11
2019-01-12T14:48:41.141Z,94799.38
2019-01-12T14:51:08.746Z,94799.38
2019-01-12T14:53:36.774Z,94797.67
2019-01-12T14:56:04.473Z,94795.39
2019-01-12T14:58:32.090Z,94793.69
2019-01-12T15:00:59.661Z,94792.93
2019-01-12T15:03:27.064Z,94787.80
2019-01-12T15:05:54.668Z,94786.50
2019-01-12T15:08:22.143Z,94793.91
2019-01-12T15:10:49.708Z,94795.02
2019-01-12T15:13:17.156Z,94797.13
2019-01-12T15:15:44.879Z,94792.19
2019-01-12T15:18:12.477Z,94795.78
2019-01-12T15:20:39.962Z,94797.32
2019-01-12T15:23:07.583Z,94797.32
2019-01-12T15:25:35.120Z,94809.81
2019-01-12T15:28:09.138Z,94799.22
2019-01-12T15:30:32.574Z,94805.64
2019-01-12T15:33:02.775Z,94805.64
2019-01-12T15:35:32.166Z,94810.20
2019-01-12T15:37:59.817Z,94814.36
2019-01-12T15:40:27.655Z,94807.55
2019-01-12T15:42:55.148Z,94814.00
2019-01-12T15:45:23.961Z,94812.87
2019-01-12T15:47:52.038Z,94812.87
2019-01-12T15:50:22.243Z,94807.18
2019-01-12T15:52:49.973Z,94813.60
2019-01-12T15:55:17.477Z,94813.81
2019-01-12T15:57:46.672Z,94821.56
2019-01-12T16:00:17.143Z,94823.48
2019-01-12T16:02:44.881Z,94823.48
2019-01-12T16:05:12.500Z,94820.64
2019-01-12T16:07:40.419Z,94836.73
2019-01-12T16:10:09.439Z,94836.73
2019-01-12T16:12:37.148Z,94832.41
2019-01-12T16:15:07.568Z,94843.56
2019-01-12T16:17:35.071Z,94838.08
2019-01-12T16:20:03.247Z,94843.95
2019-01-12T16:22:30.789Z,94838.25
2019-01-12T16:24:58.327Z,94837.46
2019-01-12T16:27:25.868Z,94821.16
2019-01-12T16:29:53.411Z,94842.42
2019-01-12T16:32:20.914Z,94846.42
2019-01-12T16:34:48.650Z,94841.70
2019-01-12T16:37:16.397Z,94841.70
2019-01-12T16:39:44.097Z,94848.09
2019-01-12T16:42:11.723Z,94848.09
2019-01-12T16:44:39.602Z,94844.30
2019-01-12T16:47:07.253Z,94841.84
2019-01-12T16:49:34.763Z,94852.62
2019-01-12T16:52:02.732Z,94854.33
2019-01-12T16:54:30.360Z,94853.21
2019-01-12T16:56:57.904Z,94849.23
2019-01-12T16:59:25.798Z,94846.58
2019-01-12T17:01:53.239Z,94847.33
2019-01-12T17:04:20.955Z,94840.15
2019-01-12T17:06:48.614Z,94848.68
2019-01-12T17:09:16.183Z,94851.88
2019-01-12T17:11:43.680Z,94848.48
2019-01-12T17:14:11.300Z,94850.18
2019-01-12T17:16:38.720Z,94851.46
2019-01-12T17:19:06.370Z,94847.72
2019-01-12T17:21:33.921Z,94847.18
2019-01-12T17:24:01.468Z,94851.52
2019-01-12T17:26:28.975Z,94851.16
2019-01-12T17:28:56.548Z,94857.22
2019-01-12T17:31:24.217Z,94857.22
2019-01-12T17:33:51.768Z,94852.66
2019-01-12T17:36:19.424Z,94852.30
2019-01-12T17:38:47.021Z,94894.77
2019-01-12T17:41:14.905Z,94852.23
2019-01-12T17:43:42.526Z,94849.23
2019-01-12T17:46:10.058Z,94851.08
2019-01-12T17:48:38.012Z,94856.55
2019-01-12T17:51:05.598Z,94856.56
2019-01-12T17:53:33.676Z,94851.44
2019-01-12T17:56:02.315Z,94862.88
2019-01-12T17:58:30.385Z,94855.48
2019-01-12T18:00:58.006Z,94853.06
2019-01-12T18:03:25.695Z,94862.36
2019-01-12T18:05:53.589Z,94856.83
2019-01-12T18:08:21.458Z,94850.42
2019-01-12T18:10:49.178Z,94848.89
2019-01-12T18:13:16.751Z,94846.80
2019-01-12T18:15:44.286Z,94843.03
2019-01-12T18:18:11.839Z,94836.75
2019-01-12T18:20:39.736Z,94840.54
2019-01-12T18:23:07.286Z,94836.16
2019-01-12T18:25:34.885Z,94832.94
2019-01-12T18:28:02.545Z,94823.48
2019-01-12T18:30:29.967Z,94828.40
2019-01-12T18:32:57.619Z,94825.53
2019-01-12T18:35:25.189Z,94830.08
2019-01-12T18:37:52.708Z,94833.11
2019-01-12T18:40:20.289Z,94830.84
2019-01-12T18:42:49.021Z,94834.07
2019-01-12T18:45:17.398Z,94831.41
2019-01-12T18:47:45.380Z,94837.88
2019-01-12T18:50:16.099Z,94827.26
2019-01-12T18:52:43.663Z,94830.51
2019-01-12T18:55:11.676Z,94833.70
2019-01-12T18:57:39.298Z,94830.87
2019-01-12T19:00:18.396Z,94820.03
2019-01-12T19:02:41.879Z,94823.45
2019-01-12T19:05:09.520Z,94831.61
2019-01-12T19:07:37.025Z,94833.67
2019-01-12T19:10:05.701Z,94842.05
2019-01-12T19:12:33.197Z,94828.19
2019-01-12T19:15:00.836Z,94833.13
2019-01-12T19:17:28.759Z,94834.63
2019-01-12T19:19:56.484Z,94836.33
2019-01-12T19:22:24.214Z,94838.06
2019-01-12T19:24:51.832Z,94821.55
2019-01-12T19:27:19.367Z,94834.80
2019-01-12T19:29:46.840Z,94842.59
2019-01-12T19:32:14.388Z,94831.00
2019-01-12T19:34:41.913Z,94840.89
2019-01-12T19:37:09.368Z,94835.00
2019-01-12T19:39:37.023Z,94826.10
2019-01-12T19:42:04.638Z,94825.53
2019-01-12T19:44:32.150Z,94832.36
2019-01-12T19:46:59.772Z,94825.71
2019-01-12T19:49:27.400Z,94825.94
2019-01-12T19:51:55.051Z,94829.34
2019-01-12T19:54:22.707Z,94837.52
2019-01-12T19:56:50.242Z,94832.95
2019-01-12T19:59:17.820Z,94822.15
2019-01-12T20:01:45.373Z,94822.15
2019-01-12T20:04:13.288Z,94832.38
2019-01-12T20:06:40.782Z,94822.90
2019-01-12T20:09:09.041Z,94822.32
2019-01-12T20:11:36.553Z,94828.79
2019-01-12T20:14:04.739Z,94818.34
2019-01-12T20:16:32.190Z,94826.31
2019-01-12T20:18:59.630Z,94809.27
2019-01-12T20:21:27.109Z,94809.27
2019-01-12T20:23:54.655Z,94812.30
2019-01-12T20:26:22.397Z,94812.30
2019-01-12T20:28:49.845Z,94798.82
2019-01-12T20:32:16.849Z,94798.82
2019-01-12T20:34:55.571Z,94800.33
2019-01-12T20:37:55.348Z,94797.49
2019-01-12T20:40:57.576Z,94796.91
2019-01-12T20:44:03.865Z,94796.91
2019-01-12T20:47:02.365Z,94787.02
2019-01-12T20:49:51.561Z,94794.95
2019-01-12T20:52:46.309Z,94791.86
2019-01-12T20:55:33.637Z,94784.62
2019-01-12T20:58:39.188Z,94782.92
2019-01-12T21:01:40.642Z,94774.19
2019-01-12T21:04:48.088Z,94772.30
2019-01-12T21:08:01.578Z,94768.04
2019-01-12T21:10:58.819Z,94750.82
2019-01-12T21:13:59.631Z,94753.47
2019-01-12T21:16:31.022Z,94753.47
2019-01-12T21:18:58.977Z,94745.69
2019-01-12T21:21:26.555Z,94745.28
2019-01-12T21:23:53.968Z,94743.02
2019-01-12T21:26:21.477Z,94745.12
2019-01-12T21:28:50.158Z,94744.55
2019-01-12T21:31:17.782Z,94744.55
2019-01-12T21:33:45.294Z,94752.11
2019-01-12T21:36:12.832Z,94746.62
2019-01-12T21:38:40.285Z,94753.19
2019-01-12T21:41:08.008Z,94750.59
2019-01-12T21:43:35.468Z,94758.52
2019-01-12T21:46:03.377Z,94754.52
2019-01-12T21:48:30.908Z,94751.27
2019-01-12T21:50:58.322Z,94764.36
2019-01-12T21:53:25.924Z,94756.21
2019-01-12T21:55:53.614Z,94746.75
2019-01-12T21:58:21.309Z,94757.35
2019-01-12T22:00:49.264Z,94751.84
2019-01-12T22:03:16.728Z,94745.01
2019-01-12T22:05:45.565Z,94745.91
2019-01-12T22:08:13.133Z,94753.30
2019-01-12T22:10:40.722Z,94749.46
2019-01-12T22:13:08.228Z,94746.77
2019-01-12T22:15:35.786Z,94747.05
2019-01-12T22:18:03.439Z,94747.13
2019-01-12T22:20:31.148Z,94739.38
2019-01-12T22:22:58.691Z,94733.31
2019-01-12T22:25:26.274Z,94738.80
2019-01-12T22:27:53.708Z,94743.16
2019-01-12T22:30:21.462Z,94732.94
2019-01-12T22:32:48.881Z,94730.12
2019-01-12T22:35:16.514Z,94725.97
2019-01-12T22:37:43.998Z,94726.97
2019-01-12T22:40:16.463Z,94724.67
2019-01-12T22:42:43.916Z,94724.85
2019-01-12T22:45:11.448Z,94725.06
2019-01-12T22:47:39.027Z,94729.09
2019-01-12T22:50:08.266Z,94720.88
2019-01-12T22:52:35.727Z,94653.28
2019-01-12T22:55:04.339Z,94710.92
2019-01-12T22:57:31.902Z,94721.83
2019-01-12T22:59:59.412Z,94722.13
2019-01-12T23:02:26.843Z,94718.34
2019-01-12T23:04:54.313Z,94714.34
2019-01-12T23:07:21.816Z,94712.87
2019-01-12T23:09:49.406Z,94708.61
2019-01-12T23:12:16.779Z,94705.56
2019-01-12T23:14:44.317Z,94700.27
2019-01-12T23:17:12.035Z,94701.91
2019-01-12T23:19:39.531Z,94709.72
2019-01-12T23:22:07.096Z,94704.37
2019-01-12T23:24:34.568Z,94710.27
2019-01-12T23:27:01.987Z,94704.93
2019-01-12T23:29:29.478Z,94705.40
2019-01-12T23:31:56.952Z,94707.17
2019-01-12T23:34:24.462Z,94706.73
2019-01-12T23:36:51.956Z,94704.41
2019-01-12T23:39:19.482Z,94707.94
2019-01-12T23:41:47.082Z,94709.84
2019-01-12T23:44:14.947Z,94701.53
2019-01-12T23:46:42.757Z,94705.32
2019-01-12T23:49:10.301Z,94696.45
2019-01-12T23:51:37.894Z,94692.88
2019-01-12T23:54:05.423Z,94697.77
2019-01-12T23:56:33.130Z,94687.25
2019-01-12T23:59:00.710Z,94691.83
